Time;durP1;ratioP1;P1;durP2;ratioP2;P2;SDS_P1;SDS_P2;PMS_P1;PMS_P2;Temp;Humidity;BMP_temperature;BMP_pressure;BME280_temperature;BME280_humidity;BME280_pressure;Samples;Min_cycle;Max_cycle;Signal;HPM_P1;HPM_P2
2021/04/10 00:02:21;;;;;;;4.75;3.75;;;;;;;9.70;45.06;102697.89;1766286;81;21267;-48
2021/04/10 00:04:49;;;;;;;6.33;4.30;;;;;;;9.68;44.90;102694.40;1760640;81;21180;-47
2021/04/10 00:07:16;;;;;;;7.12;4.42;;;;;;;9.66;45.08;102696.98;1761798;80;21604;-48
2021/04/10 00:09:44;;;;;;;9.18;4.67;;;;;;;9.65;45.49;102699.12;1763766;81;21577;-45
2021/04/10 00:12:15;;;;;;;6.53;4.58;;;;;;;9.60;45.87;102697.33;1764044;81;21128;-44
2021/04/10 00:14:44;;;;;;;11.25;5.15;;;;;;;9.55;45.98;102697.27;1763884;81;21141;-44
2021/04/10 00:17:12;;;;;;;8.40;4.75;;;;;;;9.53;46.08;102695.07;1764014;81;21171;-47
2021/04/10 00:19:42;;;;;;;4.08;3.52;;;;;;;9.55;46.20;102698.56;1763826;81;21168;-45
2021/04/10 00:22:10;;;;;;;5.00;3.92;;;;;;;9.58;46.15;102698.58;1762503;81;21137;-49
2021/04/10 00:24:38;;;;;;;5.35;3.70;;;;;;;9.58;46.36;102694.69;1758011;81;21156;-48
2021/04/10 00:27:07;;;;;;;5.30;3.72;;;;;;;9.58;46.35;102696.44;1766537;81;21298;-45
2021/04/10 00:29:34;;;;;;;5.05;4.25;;;;;;;9.56;46.27;102696.39;1764263;81;21176;-44
2021/04/10 00:32:04;;;;;;;4.55;3.87;;;;;;;9.55;46.43;102693.78;1763951;81;21588;-45
2021/04/10 00:34:32;;;;;;;5.22;4.15;;;;;;;9.52;46.54;102697.66;1764835;81;21143;-47
2021/04/10 00:37:00;;;;;;;4.53;3.85;;;;;;;9.46;46.51;102695.83;1763493;81;21136;-44
2021/04/10 00:39:28;;;;;;;4.80;4.30;;;;;;;9.39;46.01;102696.62;1763024;81;21148;-48
2021/04/10 00:41:56;;;;;;;4.35;3.95;;;;;;;9.34;45.96;102698.27;1755636;81;21289;-48
2021/04/10 00:44:26;;;;;;;5.30;3.87;;;;;;;9.35;46.11;102698.72;1766440;81;21168;-47
2021/04/10 00:46:54;;;;;;;5.28;4.47;;;;;;;9.36;46.46;102697.85;1757224;81;21149;-45
2021/04/10 00:49:23;;;;;;;4.83;4.10;;;;;;;9.35;46.82;102698.72;1762921;81;21290;-45
2021/04/10 00:51:53;;;;;;;6.60;4.17;;;;;;;9.35;47.01;102697.42;1764131;81;21140;-45
2021/04/10 00:54:21;;;;;;;4.72;3.77;;;;;;;9.36;46.83;102697.85;1760952;81;21168;-46
2021/04/10 00:56:50;;;;;;;4.95;4.05;;;;;;;9.35;46.73;102698.72;1760798;81;21185;-46
2021/04/10 00:59:18;;;;;;;5.90;4.25;;;;;;;9.35;46.46;102697.42;1734921;81;21155;-49
2021/04/10 01:01:48;;;;;;;4.33;3.92;;;;;;;9.36;45.72;102696.55;1765624;81;21140;-49
2021/04/10 01:04:16;;;;;;;4.55;3.60;;;;;;;9.37;45.51;102701.33;1766334;81;21167;-49
2021/04/10 01:06:46;;;;;;;4.92;4.20;;;;;;;9.36;45.47;102701.75;1763338;81;21486;-47
2021/04/10 01:09:14;;;;;;;4.78;3.87;;;;;;;9.35;45.56;102694.83;1763436;81;21314;-46
2021/04/10 01:12:21;;;;;;;4.97;3.60;;;;;;;9.33;45.71;102704.33;1763463;81;21152;-45
2021/04/10 01:15:06;;;;;;;4.60;3.72;;;;;;;9.32;45.88;102697.78;1763390;81;21129;-49
2021/04/10 01:17:40;;;;;;;;;;;;;;;9.30;45.91;102701.67;1765836;81;21271;-43
2021/04/10 01:20:48;;;;;;;4.87;3.77;;;;;;;9.30;45.97;102697.77;1700908;83;20141;-48
2021/04/10 01:23:37;;;;;;;5.22;3.85;;;;;;;9.30;46.00;102697.77;1669172;85;21191;-50
2021/04/10 01:26:44;;;;;;;5.67;4.58;;;;;;;9.34;46.38;102700.86;1800873;79;23040;-46
2021/04/10 01:29:14;;;;;;;6.10;3.72;;;;;;;9.31;46.73;102698.23;1776022;80;21160;-46
2021/04/10 01:31:45;;;;;;;5.90;4.15;;;;;;;9.33;47.01;102692.63;1785806;80;21140;-47
2021/04/10 01:34:23;;;;;;;4.80;4.20;;;;;;;9.36;47.01;102700.45;1758235;80;21156;-47
2021/04/10 01:36:51;;;;;;;6.53;4.05;;;;;;;9.40;47.08;102693.56;1790830;80;21319;-49
2021/04/10 01:39:20;;;;;;;5.60;4.25;;;;;;;9.43;46.79;102694.50;1758227;81;21216;-46
2021/04/10 01:41:50;;;;;;;5.62;4.17;;;;;;;9.50;46.67;102695.02;1750976;81;21161;-45
2021/04/10 01:44:19;;;;;;;7.78;3.77;;;;;;;9.55;46.61;102694.66;1712691;83;21156;-47
2021/04/10 01:46:48;;;;;;;4.35;3.80;;;;;;;9.61;46.56;102693.44;1676948;83;21290;-49
2021/04/10 01:49:16;;;;;;;4.53;3.80;;;;;;;9.63;46.57;102689.13;1725666;83;21150;-48
2021/04/10 01:51:44;;;;;;;5.03;4.40;;;;;;;9.67;46.69;102692.64;1713566;83;21755;-45
2021/04/10 01:54:13;;;;;;;4.53;4.00;;;;;;;9.68;46.90;102687.48;1669080;81;21157;-50
2021/04/10 01:56:44;;;;;;;5.17;4.28;;;;;;;9.71;47.13;102689.22;1743114;81;21144;-50
2021/04/10 01:59:16;;;;;;;4.50;4.10;;;;;;;9.72;47.37;102689.27;1738474;81;21605;-48
2021/04/10 02:01:52;;;;;;;4.25;3.72;;;;;;;9.73;47.71;102688.39;1715632;81;21178;-49
2021/04/10 02:04:23;;;;;;;6.90;4.67;;;;;;;9.73;48.00;102685.80;1724317;81;21624;-50
2021/04/10 02:06:51;;;;;;;5.72;4.42;;;;;;;9.75;48.23;102685.80;1741104;81;21323;-46
2021/04/10 02:09:20;;;;;;;5.50;3.90;;;;;;;9.76;48.46;102687.56;1684841;83;21164;-46
2021/04/10 02:11:53;;;;;;;6.05;5.00;;;;;;;9.77;48.61;102691.89;1708980;83;21183;-48
2021/04/10 02:14:30;;;;;;;5.12;4.62;;;;;;;9.83;49.11;102681.56;1792177;79;28098;-45
2021/04/10 02:16:58;;;;;;;6.47;4.60;;;;;;;9.86;49.52;102684.22;1776285;80;21144;-48
2021/04/10 02:19:28;;;;;;;5.25;4.10;;;;;;;9.96;49.62;102680.86;1769108;80;21156;-48
2021/04/10 02:22:07;;;;;;;5.22;4.20;;;;;;;10.07;49.89;102678.39;1774821;79;23516;-49
2021/04/10 02:24:35;;;;;;;3.85;3.50;;;;;;;10.06;49.95;102681.83;1741165;82;21318;-48
2021/04/10 02:27:06;;;;;;;4.92;3.70;;;;;;;10.08;49.41;102682.72;1740294;82;21203;-46
2021/04/10 02:29:36;;;;;;;4.42;3.98;;;;;;;10.08;48.99;102682.72;1738996;82;21160;-50
2021/04/10 02:32:17;;;;;;;4.30;3.50;;;;;;;10.09;49.01;102681.88;1739090;82;21121;-46
2021/04/10 02:35:13;;;;;;;5.10;4.17;;;;;;;10.10;49.27;102688.84;1741244;82;21176;-49
2021/04/10 02:37:41;;;;;;;5.00;3.95;;;;;;;10.11;49.62;102682.80;1741088;82;21187;-48
2021/04/10 02:40:12;;;;;;;6.20;4.42;;;;;;;10.12;49.84;102681.95;1736433;82;21537;-47
2021/04/10 02:42:43;;;;;;;6.30;3.87;;;;;;;10.16;50.10;102687.63;1725626;82;21255;-49
2021/04/10 02:45:12;;;;;;;6.10;4.00;;;;;;;10.19;50.17;102679.84;1738387;82;21188;-45
2021/04/10 02:47:43;;;;;;;6.95;4.37;;;;;;;10.24;50.25;102682.08;1720866;82;21117;-51
2021/04/10 02:50:13;;;;;;;4.70;4.20;;;;;;;10.29;50.58;102681.68;1739909;82;21596;-49
2021/04/10 02:52:45;;;;;;;5.25;4.08;;;;;;;10.30;50.72;102679.54;1738052;82;21143;-49
2021/04/10 02:55:21;;;;;;;7.03;4.67;;;;;;;10.32;50.73;102681.30;1661485;85;21203;-44
2021/04/10 02:57:49;;;;;;;4.87;4.28;;;;;;;10.34;50.60;102683.91;1691541;84;21245;-48
2021/04/10 03:00:18;;;;;;;6.10;4.90;;;;;;;10.33;50.43;102679.55;1670519;84;21292;-51
2021/04/10 03:02:47;;;;;;;7.53;4.62;;;;;;;10.30;50.34;102684.73;1676552;84;21171;-50
2021/04/10 03:05:17;;;;;;;7.08;4.70;;;;;;;10.26;50.53;102683.81;1690629;84;21151;-49
2021/04/10 03:07:48;;;;;;;5.20;4.40;;;;;;;10.24;50.70;102684.69;1692385;84;21195;-46
2021/04/10 03:10:18;;;;;;;5.33;4.78;;;;;;;10.22;50.91;102683.80;1666400;84;21228;-49
2021/04/10 03:12:47;;;;;;;8.58;6.22;;;;;;;10.22;51.20;102692.90;1691654;84;21200;-51
2021/04/10 03:15:16;;;;;;;7.12;5.55;;;;;;;10.22;51.51;102691.60;1692699;84;21635;-51
2021/04/10 03:17:47;;;;;;;7.08;4.83;;;;;;;10.21;51.57;102693.31;1669975;84;21191;-50
2021/04/10 03:20:17;;;;;;;7.78;5.03;;;;;;;10.21;51.44;102695.04;1690883;84;21196;-51
2021/04/10 03:22:48;;;;;;;6.30;5.10;;;;;;;10.13;51.60;102699.30;1659247;85;21817;-51
2021/04/10 03:25:19;;;;;;;6.25;5.47;;;;;;;10.09;51.87;102700.08;1678921;84;21145;-46
2021/04/10 03:27:48;;;;;;;9.55;5.47;;;;;;;10.07;52.53;102704.39;1682025;84;21201;-49
2021/04/10 03:30:17;;;;;;;7.30;5.83;;;;;;;10.04;53.11;102699.14;1681872;84;21168;-47
2021/04/10 03:32:47;;;;;;;8.53;5.17;;;;;;;10.04;53.26;102699.14;1675234;85;21521;-51
2021/04/10 03:35:15;;;;;;;7.58;6.28;;;;;;;10.07;53.40;102704.39;1677284;85;21172;-48
2021/04/10 03:37:44;;;;;;;6.55;5.87;;;;;;;10.09;53.48;102702.27;1678441;85;21338;-48
2021/04/10 03:40:14;;;;;;;7.58;5.90;;;;;;;10.10;53.64;102705.33;1684758;85;21149;-48
2021/04/10 03:42:45;;;;;;;9.43;6.33;;;;;;;10.08;53.67;102701.80;1687081;85;21530;-45
2021/04/10 03:45:21;;;;;;;6.42;5.75;;;;;;;10.08;53.77;102702.22;1673463;85;21396;-45
2021/04/10 03:47:56;;;;;;;8.85;6.92;;;;;;;10.11;53.86;102702.30;1807375;79;22300;-46
2021/04/10 03:50:26;;;;;;;;;;;;;;;10.13;53.89;102704.49;1770916;80;21160;-43
2021/04/10 03:52:55;;;;;;;8.70;6.90;;;;;;;10.14;53.98;102699.30;1784022;80;20132;-46
2021/04/10 03:55:25;;;;;;;8.43;6.50;;;;;;;10.16;54.17;102704.09;1776864;80;21180;-45
2021/04/10 03:57:53;;;;;;;7.83;6.28;;;;;;;10.10;54.57;102700.55;1777153;80;21140;-48
2021/04/10 04:00:23;;;;;;;8.60;7.03;;;;;;;10.11;54.85;102706.20;1757119;81;21168;-48
2021/04/10 04:02:52;;;;;;;8.40;6.25;;;;;;;10.13;55.16;102713.18;1779299;80;21270;-49
2021/04/10 04:05:21;;;;;;;9.85;7.22;;;;;;;10.16;55.32;102714.95;1778795;80;21180;-45
2021/04/10 04:07:49;;;;;;;11.18;7.70;;;;;;;10.20;55.35;102712.38;1779196;80;21160;-48
2021/04/10 04:10:17;;;;;;;9.58;7.53;;;;;;;10.28;55.26;102708.58;1780043;80;21163;-49
2021/04/10 04:12:45;;;;;;;9.33;7.22;;;;;;;10.36;55.22;102705.62;1780128;80;21148;-46
2021/04/10 04:15:14;;;;;;;8.35;6.95;;;;;;;10.42;55.31;102713.48;1778443;80;21156;-49
2021/04/10 04:17:42;;;;;;;10.88;7.15;;;;;;;10.44;55.57;102714.37;1777041;80;21596;-48
2021/04/10 04:20:14;;;;;;;8.85;6.95;;;;;;;10.44;55.80;102709.16;1777162;80;21148;-46
2021/04/10 04:22:41;;;;;;;8.85;6.53;;;;;;;10.46;56.09;102720.46;1777041;80;21140;-51
2021/04/10 04:25:11;;;;;;;9.45;7.20;;;;;;;10.51;56.23;102713.55;1774528;80;21176;-47
2021/04/10 04:27:40;;;;;;;9.43;7.00;;;;;;;10.61;56.22;102721.92;1777011;80;21148;-49
2021/04/10 04:30:09;;;;;;;7.42;6.67;;;;;;;10.66;56.25;102715.01;1778695;80;21271;-48
2021/04/10 04:32:38;;;;;;;8.65;7.25;;;;;;;10.69;56.23;102716.35;1776345;80;21148;-48
2021/04/10 04:35:07;;;;;;;7.95;6.72;;;;;;;10.72;56.08;102718.96;1779181;80;21160;-53
2021/04/10 04:37:35;;;;;;;10.10;6.85;;;;;;;10.75;56.07;102716.82;1780334;80;21561;-46
2021/04/10 04:40:07;;;;;;;8.15;7.35;;;;;;;10.79;56.00;102719.89;1774146;80;21687;-48
2021/04/10 04:42:35;;;;;;;12.03;8.05;;;;;;;10.92;55.70;102722.59;1790694;80;21656;-50
2021/04/10 04:45:05;;;;;;;9.03;7.22;;;;;;;10.94;55.63;102725.23;1778329;80;21151;-46
2021/04/10 04:47:33;;;;;;;8.78;7.33;;;;;;;10.98;55.36;102722.68;1768651;80;21161;-49
2021/04/10 04:50:02;;;;;;;10.40;7.87;;;;;;;10.99;55.29;102728.31;1764006;81;21143;-46
2021/04/10 04:52:31;;;;;;;14.78;7.42;;;;;;;10.98;55.23;102730.49;1763340;81;21168;-47
2021/04/10 04:54:59;;;;;;;7.83;6.75;;;;;;;11.00;55.21;102724.86;1763747;80;21153;-48
2021/04/10 04:57:28;;;;;;;10.80;6.87;;;;;;;11.05;55.18;102728.36;1763588;81;21141;-48
2021/04/10 04:59:56;;;;;;;9.98;7.05;;;;;;;11.07;54.95;102727.94;1763149;80;21188;-47
2021/04/10 05:02:24;;;;;;;7.95;6.45;;;;;;;11.11;54.54;102727.09;1761390;81;21168;-49
2021/04/10 05:04:52;;;;;;;7.37;6.22;;;;;;;11.13;54.19;102731.89;1766232;81;21148;-48
2021/04/10 05:07:21;;;;;;;12.88;6.90;;;;;;;11.13;53.95;102730.59;1766066;81;21169;-45
2021/04/10 05:09:49;;;;;;;8.65;7.05;;;;;;;11.10;53.96;102731.00;1763626;81;21177;-45
2021/04/10 05:12:17;;;;;;;9.35;7.10;;;;;;;11.08;54.25;102734.03;1762899;81;21129;-48
2021/04/10 05:14:45;;;;;;;9.70;7.37;;;;;;;11.05;54.54;102732.27;1763002;81;21577;-49
2021/04/10 05:17:14;;;;;;;8.28;6.60;;;;;;;11.10;54.73;102738.40;1762676;81;21160;-47
2021/04/10 05:19:43;;;;;;;9.83;8.40;;;;;;;11.14;54.91;102741.47;1762874;81;21121;-46
2021/04/10 05:22:11;;;;;;;7.37;6.58;;;;;;;11.17;55.03;102740.17;1765329;81;21124;-45
2021/04/10 05:24:38;;;;;;;5.75;5.25;;;;;;;11.19;54.18;102738.45;1766097;81;21149;-48
2021/04/10 05:27:07;;;;;;;6.92;4.83;;;;;;;11.20;53.82;102739.33;1766000;81;21201;-49
2021/04/10 05:29:34;;;;;;;5.58;4.50;;;;;;;11.22;53.63;102741.09;1763842;81;21180;-51
2021/04/10 05:32:06;;;;;;;7.05;4.65;;;;;;;11.24;52.95;102742.39;1763076;80;21148;-44
2021/04/10 05:34:35;;;;;;;6.70;4.37;;;;;;;11.25;52.24;102737.64;1764883;81;21173;-44
2021/04/10 05:37:03;;;;;;;5.70;4.20;;;;;;;11.27;52.11;102741.13;1762855;80;21121;-48
2021/04/10 05:39:31;;;;;;;5.05;4.50;;;;;;;11.29;51.38;102732.43;1762879;81;21205;-48
2021/04/10 05:41:59;;;;;;;5.17;4.28;;;;;;;11.29;51.32;102738.95;1754210;81;21184;-46
2021/04/10 05:44:26;;;;;;;4.92;4.08;;;;;;;11.32;51.00;102735.07;1766035;81;21144;-49
2021/04/10 05:46:54;;;;;;;6.05;4.00;;;;;;;11.37;50.81;102742.93;1756158;81;21143;-46
2021/04/10 05:49:23;;;;;;;4.62;3.95;;;;;;;11.48;50.48;102743.00;1767887;81;21318;-49
2021/04/10 05:51:51;;;;;;;5.65;4.50;;;;;;;11.61;50.02;102740.88;1761281;81;21149;-48
2021/04/10 05:54:19;;;;;;;5.15;4.40;;;;;;;11.77;49.11;102741.43;1771910;81;21148;-46
2021/04/10 05:56:47;;;;;;;4.78;4.10;;;;;;;11.94;48.33;102738.05;1708150;84;21284;-50
2021/04/10 05:59:15;;;;;;;5.90;4.53;;;;;;;12.14;47.49;102738.98;1757967;80;21188;-47
2021/04/10 06:01:43;;;;;;;4.37;3.98;;;;;;;12.29;47.17;102736.86;1752451;81;21176;-52
2021/04/10 06:04:12;;;;;;;4.92;4.45;;;;;;;12.47;46.21;102746.03;1760439;81;21149;-49
2021/04/10 06:06:41;;;;;;;5.37;4.22;;;;;;;12.69;45.37;102734.77;1754137;81;21568;-51
2021/04/10 06:09:12;;;;;;;6.33;4.67;;;;;;;12.95;44.28;102733.03;1759344;81;21133;-51
2021/04/10 06:11:40;;;;;;;5.25;4.60;;;;;;;13.18;43.33;102736.97;1764660;81;21109;-45
2021/04/10 06:14:08;;;;;;;4.95;4.37;;;;;;;13.35;42.57;102739.56;1766316;81;21141;-47
2021/04/10 06:16:37;;;;;;;4.83;4.30;;;;;;;13.52;42.37;102741.25;1760759;81;21116;-49
2021/04/10 06:19:05;;;;;;;5.65;3.92;;;;;;;13.59;42.07;102740.81;1707516;84;21185;-49
2021/04/10 06:21:34;;;;;;;8.38;4.50;;;;;;;13.70;41.75;102739.89;1772473;80;21197;-48
2021/04/10 06:24:05;;;;;;;8.53;4.20;;;;;;;13.80;41.13;102744.24;1761619;81;21558;-49
2021/04/10 06:26:33;;;;;;;6.62;4.12;;;;;;;13.80;40.89;102744.67;1763765;81;21581;-50
2021/04/10 06:29:01;;;;;;;8.90;4.90;;;;;;;13.73;40.60;102746.44;1764133;81;21125;-46
2021/04/10 06:31:29;;;;;;;5.50;4.33;;;;;;;13.71;40.29;102744.69;1764891;81;21569;-52
2021/04/10 06:33:58;;;;;;;6.28;4.60;;;;;;;13.77;40.10;102744.67;1767569;81;21561;-45
2021/04/10 06:36:27;;;;;;;6.35;3.95;;;;;;;13.87;39.88;102748.56;1762663;81;21601;-47
2021/04/10 06:38:55;;;;;;;5.85;4.15;;;;;;;13.94;39.78;102752.03;1759177;81;21164;-49
2021/04/10 06:41:23;;;;;;;4.30;3.90;;;;;;;13.95;39.67;102747.21;1761927;81;21129;-45
2021/04/10 06:43:52;;;;;;;5.25;4.35;;;;;;;13.99;39.82;102752.89;1700965;84;21119;-45
2021/04/10 06:46:20;;;;;;;5.53;4.60;;;;;;;14.05;39.31;102750.69;1764530;81;21149;-47
2021/04/10 06:48:48;;;;;;;5.92;4.95;;;;;;;14.11;39.90;102744.98;1720619;82;21507;-45
2021/04/10 06:51:16;;;;;;;8.75;5.10;;;;;;;14.22;40.11;102751.02;1716706;82;21110;-45
2021/04/10 06:53:46;;;;;;;5.25;4.47;;;;;;;14.34;40.54;102748.36;1740995;82;21107;-44
2021/04/10 06:56:20;;;;;;;7.20;4.72;;;;;;;14.44;40.33;102751.39;1745196;82;21142;-46
2021/04/10 06:59:08;;;;;;;5.72;4.92;;;;;;;14.44;40.14;102755.31;1739843;82;21114;-48
2021/04/10 07:01:37;;;;;;;6.47;4.55;;;;;;;14.40;39.20;102756.21;1750208;82;21158;-47
2021/04/10 07:04:05;;;;;;;6.20;5.20;;;;;;;14.48;38.61;102759.66;1744972;82;21522;-48
2021/04/10 07:06:36;;;;;;;5.85;4.87;;;;;;;14.47;39.07;102756.59;1747213;82;21155;-49
2021/04/10 07:09:06;;;;;;;5.60;4.60;;;;;;;14.48;39.48;102754.41;1697316;83;21533;-47
2021/04/10 07:11:36;;;;;;;5.60;4.35;;;;;;;14.54;38.62;102753.50;1712447;83;21346;-47
2021/04/10 07:14:06;;;;;;;6.47;4.85;;;;;;;14.62;38.66;102755.19;1695060;83;21597;-49
2021/04/10 07:16:38;;;;;;;6.55;4.70;;;;;;;14.80;37.47;102761.16;1692787;83;21128;-46
2021/04/10 07:19:11;;;;;;;5.97;5.08;;;;;;;14.94;37.48;102755.40;1709345;83;21200;-50
2021/04/10 07:21:39;;;;;;;;;;;;;;;15.06;37.12;102756.61;1744789;82;21149;-46
2021/04/10 07:24:08;;;;;;;7.15;4.78;;;;;;;15.16;36.82;102763.50;1745579;82;20147;-49
2021/04/10 07:26:48;;;;;;;7.53;5.62;;;;;;;15.28;37.13;102762.08;1743459;82;21150;-45
2021/04/10 07:29:43;;;;;;;6.62;5.08;;;;;;;15.36;37.19;102765.06;1742738;82;21158;-48
2021/04/10 07:32:33;;;;;;;5.30;4.80;;;;;;;15.48;37.38;102769.80;1679022;85;21613;-47
2021/04/10 07:35:17;;;;;;;6.22;4.95;;;;;;;15.68;38.02;102764.77;1855050;77;27595;-50
2021/04/10 07:37:48;;;;;;;;;;;;;;;15.74;38.61;102767.33;1789447;80;21132;-45
2021/04/10 07:40:27;;;;;;;6.67;5.25;;;;;;;15.77;39.54;102770.34;1771371;81;20216;-51
2021/04/10 07:43:02;;;;;;;8.10;6.17;;;;;;;15.74;39.29;102765.14;1751397;81;21136;-48
2021/04/10 07:45:35;;;;;;;8.93;5.90;;;;;;;15.72;39.85;102762.97;1765913;81;21154;-47
2021/04/10 07:48:12;;;;;;;12.28;8.05;;;;;;;15.70;39.14;102768.69;1782751;80;21270;-48
2021/04/10 07:50:40;;;;;;;183.70;52.00;;;;;;;15.64;39.30;102768.28;1683095;84;21163;-46
2021/04/10 07:53:27;;;;;;;23.12;11.75;;;;;;;15.53;37.00;102772.80;1714972;83;21669;-49
2021/04/10 07:55:58;;;;;;;20.97;9.88;;;;;;;15.44;36.07;102771.12;1709117;83;21131;-48
2021/04/10 07:58:31;;;;;;;14.47;7.97;;;;;;;15.33;36.45;102774.72;1685674;84;21168;-49
2021/04/10 08:01:02;;;;;;;10.23;8.20;;;;;;;15.28;36.27;102776.50;1715323;83;21179;-47
2021/04/10 08:03:34;;;;;;;54.67;19.92;;;;;;;15.23;35.99;102774.34;1708305;83;21110;-46
2021/04/10 08:06:12;;;;;;;27.55;12.23;;;;;;;15.19;36.33;102770.02;1677998;84;21254;-45
2021/04/10 08:08:54;;;;;;;13.40;9.70;;;;;;;15.14;37.12;102773.14;1718528;83;21204;-48
2021/04/10 08:11:36;;;;;;;13.43;9.58;;;;;;;15.05;37.95;102773.20;1714951;83;21107;-50
2021/04/10 08:14:10;;;;;;;17.12;9.98;;;;;;;14.93;38.45;102775.92;1672616;84;21325;-51
2021/04/10 08:16:42;;;;;;;10.38;9.23;;;;;;;14.86;39.09;102776.88;1724207;83;21136;-47
2021/04/10 08:19:11;;;;;;;14.43;10.00;;;;;;;14.84;39.79;102778.64;1675751;84;21222;-46
2021/04/10 08:21:49;;;;;;;13.72;10.98;;;;;;;14.81;40.20;102773.40;1687533;84;21139;-50
2021/04/10 08:24:38;;;;;;;14.20;11.08;;;;;;;14.81;40.19;102776.90;1718136;83;21171;-46
2021/04/10 08:27:13;;;;;;;14.05;11.22;;;;;;;14.82;40.92;102773.84;1714086;81;21268;-48
2021/04/10 08:29:43;;;;;;;14.55;12.33;;;;;;;14.82;41.29;102777.78;1678283;85;21332;-48
2021/04/10 08:32:14;;;;;;;14.53;12.23;;;;;;;14.82;41.59;102786.48;1686642;85;21202;-49
2021/04/10 08:34:43;;;;;;;14.20;11.78;;;;;;;14.84;41.80;102782.56;1698599;83;21557;-49
2021/04/10 08:37:13;;;;;;;17.60;10.82;;;;;;;14.83;41.91;102779.50;1700626;84;21712;-48
2021/04/10 08:39:46;;;;;;;14.25;9.65;;;;;;;14.82;41.75;102776.47;1671832;86;21147;-49
2021/04/10 08:42:15;;;;;;;13.10;8.75;;;;;;;14.82;41.09;102780.40;1671814;85;21192;-46
2021/04/10 08:44:48;;;;;;;11.18;7.85;;;;;;;14.81;40.24;102773.40;1670336;86;21213;-46
2021/04/10 08:47:22;;;;;;;12.82;8.15;;;;;;;14.88;39.30;102772.48;1764755;79;23098;-48
2021/04/10 08:49:52;;;;;;;12.00;8.80;;;;;;;14.86;39.64;102779.49;1734430;81;21125;-48
2021/04/10 08:52:23;;;;;;;11.85;8.08;;;;;;;14.89;40.10;102775.52;1738283;82;21207;-48
2021/04/10 08:54:51;;;;;;;14.18;9.18;;;;;;;14.91;40.15;102777.26;1733739;82;21160;-48
2021/04/10 08:57:20;;;;;;;10.20;8.10;;;;;;;14.93;41.00;102775.49;1732204;82;21152;-47
2021/04/10 08:59:48;;;;;;;9.73;8.73;;;;;;;14.94;40.89;102772.44;1731485;82;21137;-51
2021/04/10 09:02:20;;;;;;;11.50;9.08;;;;;;;14.93;40.91;102773.30;1733370;82;21147;-51
2021/04/10 09:05:06;;;;;;;9.85;8.40;;;;;;;14.91;41.07;102777.69;1730428;82;21140;-49
2021/04/10 09:07:57;;;;;;;19.02;8.05;;;;;;;14.82;40.19;102776.00;1741497;82;21133;-48
2021/04/10 09:10:30;;;;;;;7.97;7.08;;;;;;;14.74;40.60;102776.50;1730010;82;21193;-50
2021/04/10 09:13:19;;;;;;;8.05;7.10;;;;;;;14.67;39.90;102775.66;1736229;82;21128;-46
2021/04/10 09:15:47;;;;;;;9.25;7.67;;;;;;;14.61;39.69;102770.94;1746000;82;21204;-49
2021/04/10 09:18:16;;;;;;;9.50;8.45;;;;;;;14.56;40.58;102772.70;1668280;84;21128;-49
2021/04/10 09:20:49;;;;;;;10.15;8.35;;;;;;;14.53;41.01;102768.77;1698633;84;21110;-51
2021/04/10 09:23:27;;;;;;;10.48;7.85;;;;;;;14.51;40.96;102769.22;1680005;84;21565;-50
2021/04/10 09:26:08;;;;;;;9.63;8.58;;;;;;;14.48;41.41;102766.20;1682318;84;21176;-48
2021/04/10 09:29:08;;;;;;;9.83;8.30;;;;;;;14.46;42.40;102767.09;1690635;84;21154;-49
2021/04/10 09:31:45;;;;;;;10.53;8.80;;;;;;;14.44;43.03;102769.72;1692588;84;21197;-49
2021/04/10 09:34:49;;;;;;;9.30;8.30;;;;;;;14.42;43.44;102769.29;1668815;85;21195;-51
2021/04/10 09:37:26;;;;;;;10.65;8.98;;;;;;;14.39;43.02;102770.60;1688650;84;21164;-48
2021/04/10 09:40:00;;;;;;;8.93;8.08;;;;;;;14.36;43.75;102767.55;1684395;84;21584;-48
2021/04/10 09:42:44;;;;;;;10.28;8.90;;;;;;;14.34;44.11;102762.77;1685287;84;21708;-46
2021/04/10 09:45:11;;;;;;;8.95;8.05;;;;;;;14.33;45.02;102764.97;1735099;81;21262;-45
2021/04/10 09:48:00;;;;;;;9.40;8.50;;;;;;;14.36;44.01;102762.31;1705535;83;21141;-45
2021/04/10 09:50:39;;;;;;;8.83;8.03;;;;;;;14.44;44.42;102768.41;1739057;82;21588;-46
2021/04/10 09:53:17;;;;;;;11.50;8.48;;;;;;;14.53;43.68;102758.29;1743700;82;21140;-49
2021/04/10 09:56:03;;;;;;;10.72;8.95;;;;;;;14.65;43.99;102755.16;1755476;79;24182;-47
2021/04/10 09:58:51;;;;;;;9.50;7.67;;;;;;;14.68;44.77;102756.89;1687301;84;21236;-49
2021/04/10 10:01:31;;;;;;;9.20;8.30;;;;;;;14.78;43.57;102752.44;1809058;79;23082;-46
2021/04/10 10:03:59;;;;;;;9.25;8.35;;;;;;;14.77;44.56;102750.72;1781494;80;21151;-50
2021/04/10 10:06:33;;;;;;;9.28;8.38;;;;;;;14.78;44.02;102749.82;1750915;81;21140;-49
2021/04/10 10:09:26;;;;;;;9.00;7.95;;;;;;;14.81;43.95;102749.81;1726364;82;21188;-47
2021/04/10 10:11:56;;;;;;;8.80;7.90;;;;;;;14.84;44.03;102747.19;1645986;86;21187;-47
2021/04/10 10:14:26;;;;;;;8.23;7.30;;;;;;;14.89;43.83;102749.31;1695406;83;21187;-48
2021/04/10 10:16:54;;;;;;;9.15;8.15;;;;;;;14.93;43.49;102751.02;1669431;83;21125;-46
2021/04/10 10:19:22;;;;;;;10.43;8.55;;;;;;;14.96;43.94;102749.70;1677865;83;21194;-46
2021/04/10 10:21:51;;;;;;;20.95;9.35;;;;;;;14.97;43.44;102744.87;1693947;83;21135;-48
2021/04/10 10:24:21;;;;;;;11.80;8.43;;;;;;;14.98;43.53;102742.69;1699448;83;21312;-52
2021/04/10 10:26:49;;;;;;;7.90;7.10;;;;;;;15.01;43.72;102740.03;1680859;83;21947;-46
2021/04/10 10:29:18;;;;;;;8.23;7.17;;;;;;;15.04;43.54;102742.20;1692820;83;21440;-47
2021/04/10 10:31:50;;;;;;;8.03;6.83;;;;;;;15.09;42.81;102739.08;1691145;83;21189;-49
2021/04/10 10:34:21;;;;;;;7.25;6.33;;;;;;;15.14;42.39;102741.67;1682220;83;21163;-48
2021/04/10 10:36:51;;;;;;;8.70;6.55;;;;;;;15.18;42.15;102730.27;1635605;86;21799;-47
2021/04/10 10:39:33;;;;;;;10.80;6.75;;;;;;;15.22;41.41;102735.91;1695473;83;21159;-46
2021/04/10 10:42:01;;;;;;;;;;;;;;;15.27;41.65;102735.44;1709073;83;21181;-47
2021/04/10 10:44:30;;;;;;;6.78;5.60;;;;;;;15.32;41.44;102731.87;1689018;83;20170;-48
2021/04/10 10:47:04;;;;;;;8.83;6.17;;;;;;;15.35;41.22;102736.23;1683094;83;21591;-48
2021/04/10 10:49:33;;;;;;;8.88;5.90;;;;;;;15.39;40.91;102728.75;1684083;85;21155;-49
2021/04/10 10:52:01;;;;;;;6.90;6.08;;;;;;;15.38;40.81;102728.31;1689086;83;21238;-49
2021/04/10 10:54:36;;;;;;;6.95;5.60;;;;;;;15.40;40.52;102719.98;1683069;83;21306;-47
2021/04/10 10:57:12;;;;;;;6.60;5.62;;;;;;;15.42;40.34;102724.77;1677151;85;21219;-50
2021/04/10 10:59:43;;;;;;;7.03;6.03;;;;;;;15.44;39.85;102720.41;1681847;83;21142;-49
2021/04/10 11:02:19;;;;;;;7.75;5.20;;;;;;;15.52;39.35;102723.81;1684794;83;21604;-47
2021/04/10 11:04:47;;;;;;;5.62;4.97;;;;;;;15.54;38.88;102716.80;1698045;83;21155;-49
2021/04/10 11:07:19;;;;;;;6.87;6.15;;;;;;;15.53;39.20;102716.39;1700314;83;21227;-47
2021/04/10 11:09:48;;;;;;;5.12;4.58;;;;;;;15.54;38.20;102714.17;1768490;80;21132;-51
2021/04/10 11:12:19;;;;;;;5.17;4.33;;;;;;;15.53;38.04;102709.83;1788296;80;21152;-48
2021/04/10 11:14:50;;;;;;;7.03;6.00;;;;;;;15.54;37.85;102710.70;1758933;80;21176;-49
2021/04/10 11:17:32;;;;;;;5.83;4.92;;;;;;;15.55;38.01;102709.36;1773140;80;21273;-46
2021/04/10 11:20:08;;;;;;;5.17;4.67;;;;;;;15.56;38.08;102704.53;1781327;80;21152;-48
2021/04/10 11:22:36;;;;;;;6.22;5.20;;;;;;;15.58;37.70;102704.06;1648805;85;21205;-49
2021/04/10 11:25:09;;;;;;;5.70;5.08;;;;;;;15.60;37.74;102700.98;1715494;83;21291;-47
2021/04/10 11:27:37;;;;;;;5.13;4.57;;;;;;;15.62;37.49;102697.05;1715999;83;21158;-51
2021/04/10 11:30:12;;;;;;;6.60;5.00;;;;;;;15.65;36.94;102693.94;1715353;83;21564;-50
2021/04/10 11:35:23;;;;;;;6.50;5.20;;;;;;;15.73;36.42;102686.83;1755510;79;21293;-46
2021/04/10 11:37:53;;;;;;;6.28;5.15;;;;;;;15.70;36.40;102682.95;1744439;82;21156;-46
2021/04/10 11:40:34;;;;;;;;;;;;;;;15.71;35.88;102684.67;1739365;82;21564;-47
2021/04/10 11:43:07;;;;;;;6.33;4.40;;;;;;;15.72;36.14;102678.98;1718043;82;20306;-47
2021/04/10 11:45:42;;;;;;;4.83;3.90;;;;;;;15.71;35.64;102680.73;1707674;83;21151;-50
2021/04/10 11:48:19;;;;;;;9.05;5.00;;;;;;;15.71;35.69;102678.11;1683347;83;21593;-47
2021/04/10 11:50:58;;;;;;;5.42;4.62;;;;;;;15.71;35.97;102671.55;1688098;83;21236;-49
2021/04/10 11:53:31;;;;;;;6.55;4.60;;;;;;;15.72;35.32;102673.73;1686868;83;21580;-45